Belmont, Washington
Current Conditions -  °F | °C
As of 4:53 PM on Friday 24 Oct 2014 (Local Time) from KPUW Reporting Station
Light Rain Light Rain  
Wind Chill: 52°   Ceiling: 7500
Heat Index: 52°   Visibility: 9mi
Dew Point: 45°   Wind: 12mph
Humidity: 77%   Direction: 90°E
Pressure: 30.04"   Gusts: NA
Location:  47.09°N, 117.16°W
Report Text: KPUW 242353Z AUTO 09010KT 9SM -RA OVC075 11/07 A3004 RMK AO2 RAB10 SLP177 P0000 60000 T01110072 10122 20100 58008
Loading
Personal Weather Stations






























Interactive Weather Map
Tropical Storm Tracking
New forecast layout! Learn more

10-Day Weather Forecast

Advertisements
Track Severe Weather on mobile